sensor_id;sensor_type;location;lat;lon;timestamp;temperature;humidity
52787;DHT22;38661;53.152;5.846;2022-07-23T00:01:21;14.50;85.00
52787;DHT22;38661;53.152;5.846;2022-07-23T00:03:47;14.40;85.80
52787;DHT22;38661;53.152;5.846;2022-07-23T00:06:13;14.30;85.70
52787;DHT22;38661;53.152;5.846;2022-07-23T00:08:39;14.30;85.40
52787;DHT22;38661;53.152;5.846;2022-07-23T00:11:05;14.30;85.40
52787;DHT22;38661;53.152;5.846;2022-07-23T00:13:30;14.30;85.40
52787;DHT22;38661;53.152;5.846;2022-07-23T00:15:56;14.40;85.50
52787;DHT22;38661;53.152;5.846;2022-07-23T00:18:22;14.40;85.60
52787;DHT22;38661;53.152;5.846;2022-07-23T00:20:48;14.50;85.60
52787;DHT22;38661;53.152;5.846;2022-07-23T00:23:14;14.40;85.60
52787;DHT22;38661;53.152;5.846;2022-07-23T00:25:39;14.40;85.70
52787;DHT22;38661;53.152;5.846;2022-07-23T00:28:05;14.30;85.80
52787;DHT22;38661;53.152;5.846;2022-07-23T00:30:31;14.30;85.70
52787;DHT22;38661;53.152;5.846;2022-07-23T00:33:00;14.30;85.70
52787;DHT22;38661;53.152;5.846;2022-07-23T00:35:28;14.30;85.80
52787;DHT22;38661;53.152;5.846;2022-07-23T00:37:55;14.30;85.80
52787;DHT22;38661;53.152;5.846;2022-07-23T00:40:21;14.20;85.80
52787;DHT22;38661;53.152;5.846;2022-07-23T00:42:47;14.20;85.90
52787;DHT22;38661;53.152;5.846;2022-07-23T00:45:12;14.10;86.20
52787;DHT22;38661;53.152;5.846;2022-07-23T00:47:38;14.10;86.30
52787;DHT22;38661;53.152;5.846;2022-07-23T00:50:06;14.10;86.70
52787;DHT22;38661;53.152;5.846;2022-07-23T00:52:32;14.00;86.50
52787;DHT22;38661;53.152;5.846;2022-07-23T00:54:59;14.00;87.10
52787;DHT22;38661;53.152;5.846;2022-07-23T00:57:25;14.00;86.90
52787;DHT22;38661;53.152;5.846;2022-07-23T00:59:50;14.00;86.80
52787;DHT22;38661;53.152;5.846;2022-07-23T01:02:16;14.00;87.00
52787;DHT22;38661;53.152;5.846;2022-07-23T01:04:42;13.90;86.70
52787;DHT22;38661;53.152;5.846;2022-07-23T01:07:08;13.90;86.70
52787;DHT22;38661;53.152;5.846;2022-07-23T01:09:33;14.00;87.00
52787;DHT22;38661;53.152;5.846;2022-07-23T01:11:59;13.90;86.90
52787;DHT22;38661;53.152;5.846;2022-07-23T01:14:25;13.90;86.90
52787;DHT22;38661;53.152;5.846;2022-07-23T01:16:52;14.00;86.90
52787;DHT22;38661;53.152;5.846;2022-07-23T01:19:18;14.00;86.80
52787;DHT22;38661;53.152;5.846;2022-07-23T01:21:48;14.00;86.80
52787;DHT22;38661;53.152;5.846;2022-07-23T01:24:15;14.00;86.70
52787;DHT22;38661;53.152;5.846;2022-07-23T01:26:44;14.00;86.60
52787;DHT22;38661;53.152;5.846;2022-07-23T01:29:10;14.00;86.60
52787;DHT22;38661;53.152;5.846;2022-07-23T01:31:36;14.00;86.50
52787;DHT22;38661;53.152;5.846;2022-07-23T01:34:02;14.00;86.40
52787;DHT22;38661;53.152;5.846;2022-07-23T01:36:28;14.00;86.40
52787;DHT22;38661;53.152;5.846;2022-07-23T01:38:54;14.00;86.40
52787;DHT22;38661;53.152;5.846;2022-07-23T01:41:20;14.00;86.30
52787;DHT22;38661;53.152;5.846;2022-07-23T01:43:46;14.00;86.20
52787;DHT22;38661;53.152;5.846;2022-07-23T01:46:12;13.90;86.10
52787;DHT22;38661;53.152;5.846;2022-07-23T01:48:38;13.90;86.10
52787;DHT22;38661;53.152;5.846;2022-07-23T01:51:03;13.90;86.10
52787;DHT22;38661;53.152;5.846;2022-07-23T01:53:29;13.90;86.20
52787;DHT22;38661;53.152;5.846;2022-07-23T01:55:58;13.90;86.30
52787;DHT22;38661;53.152;5.846;2022-07-23T01:58:25;13.80;86.40
52787;DHT22;38661;53.152;5.846;2022-07-23T02:00:51;13.90;86.30
52787;DHT22;38661;53.152;5.846;2022-07-23T02:03:17;13.80;86.40
52787;DHT22;38661;53.152;5.846;2022-07-23T02:05:43;13.80;86.40
52787;DHT22;38661;53.152;5.846;2022-07-23T02:08:08;13.80;86.60
52787;DHT22;38661;53.152;5.846;2022-07-23T02:10:34;13.80;86.50
52787;DHT22;38661;53.152;5.846;2022-07-23T02:13:00;13.90;86.60
52787;DHT22;38661;53.152;5.846;2022-07-23T02:15:26;13.80;86.60
52787;DHT22;38661;53.152;5.846;2022-07-23T02:17:52;13.80;86.60
52787;DHT22;38661;53.152;5.846;2022-07-23T02:20:17;13.80;86.60
52787;DHT22;38661;53.152;5.846;2022-07-23T02:22:44;13.80;86.90
52787;DHT22;38661;53.152;5.846;2022-07-23T02:25:09;13.80;86.90
52787;DHT22;38661;53.152;5.846;2022-07-23T02:27:36;13.80;87.30
52787;DHT22;38661;53.152;5.846;2022-07-23T02:30:02;13.80;87.10
52787;DHT22;38661;53.152;5.846;2022-07-23T02:32:28;13.70;87.00
52787;DHT22;38661;53.152;5.846;2022-07-23T02:34:54;13.70;87.10
52787;DHT22;38661;53.152;5.846;2022-07-23T02:37:20;13.70;87.20
52787;DHT22;38661;53.152;5.846;2022-07-23T02:39:45;13.80;87.20
52787;DHT22;38661;53.152;5.846;2022-07-23T02:42:14;13.70;87.30
52787;DHT22;38661;53.152;5.846;2022-07-23T02:44:39;13.70;87.50
52787;DHT22;38661;53.152;5.846;2022-07-23T02:47:05;13.70;87.20
52787;DHT22;38661;53.152;5.846;2022-07-23T02:49:31;13.70;87.20
52787;DHT22;38661;53.152;5.846;2022-07-23T02:51:57;13.70;87.20
52787;DHT22;38661;53.152;5.846;2022-07-23T02:54:22;13.70;87.40
52787;DHT22;38661;53.152;5.846;2022-07-23T02:56:48;13.70;87.10
52787;DHT22;38661;53.152;5.846;2022-07-23T02:59:16;13.60;87.10
52787;DHT22;38661;53.152;5.846;2022-07-23T03:01:41;13.70;87.10
52787;DHT22;38661;53.152;5.846;2022-07-23T03:04:07;13.70;87.00
52787;DHT22;38661;53.152;5.846;2022-07-23T03:06:33;13.60;87.00
52787;DHT22;38661;53.152;5.846;2022-07-23T03:08:59;13.60;87.00
52787;DHT22;38661;53.152;5.846;2022-07-23T03:11:24;13.60;87.00
52787;DHT22;38661;53.152;5.846;2022-07-23T03:13:50;13.60;87.00
52787;DHT22;38661;53.152;5.846;2022-07-23T03:16:15;13.70;87.00
52787;DHT22;38661;53.152;5.846;2022-07-23T03:18:41;13.60;87.00
52787;DHT22;38661;53.152;5.846;2022-07-23T03:21:07;13.60;86.90
52787;DHT22;38661;53.152;5.846;2022-07-23T03:23:33;13.60;86.90
52787;DHT22;38661;53.152;5.846;2022-07-23T03:25:58;13.60;86.90
52787;DHT22;38661;53.152;5.846;2022-07-23T03:28:24;13.50;86.90
52787;DHT22;38661;53.152;5.846;2022-07-23T03:30:50;13.60;87.00
52787;DHT22;38661;53.152;5.846;2022-07-23T03:33:17;13.60;86.90
52787;DHT22;38661;53.152;5.846;2022-07-23T03:35:44;13.60;87.00
52787;DHT22;38661;53.152;5.846;2022-07-23T03:38:10;13.50;87.00
52787;DHT22;38661;53.152;5.846;2022-07-23T03:40:36;13.60;87.00
52787;DHT22;38661;53.152;5.846;2022-07-23T03:43:01;13.60;86.90
52787;DHT22;38661;53.152;5.846;2022-07-23T03:45:27;13.60;86.90
52787;DHT22;38661;53.152;5.846;2022-07-23T03:47:53;13.50;86.80
52787;DHT22;38661;53.152;5.846;2022-07-23T03:50:18;13.50;86.80
52787;DHT22;38661;53.152;5.846;2022-07-23T03:52:44;13.50;86.80
52787;DHT22;38661;53.152;5.846;2022-07-23T03:55:10;13.50;86.80
52787;DHT22;38661;53.152;5.846;2022-07-23T03:57:36;13.50;86.80
52787;DHT22;38661;53.152;5.846;2022-07-23T04:00:03;13.50;86.90
52787;DHT22;38661;53.152;5.846;2022-07-23T04:02:31;13.50;86.80
52787;DHT22;38661;53.152;5.846;2022-07-23T04:04:56;13.50;86.80
52787;DHT22;38661;53.152;5.846;2022-07-23T04:07:22;13.50;86.90
52787;DHT22;38661;53.152;5.846;2022-07-23T04:09:48;13.50;86.90
52787;DHT22;38661;53.152;5.846;2022-07-23T04:12:14;13.50;86.90
52787;DHT22;38661;53.152;5.846;2022-07-23T04:14:40;13.50;86.90
52787;DHT22;38661;53.152;5.846;2022-07-23T04:17:06;13.50;87.20
52787;DHT22;38661;53.152;5.846;2022-07-23T04:19:32;13.50;87.00
52787;DHT22;38661;53.152;5.846;2022-07-23T04:21:57;13.40;86.90
52787;DHT22;38661;53.152;5.846;2022-07-23T04:24:23;13.30;86.90
52787;DHT22;38661;53.152;5.846;2022-07-23T04:26:49;13.30;86.90
52787;DHT22;38661;53.152;5.846;2022-07-23T04:29:15;13.30;87.20
52787;DHT22;38661;53.152;5.846;2022-07-23T04:31:40;13.20;87.30
52787;DHT22;38661;53.152;5.846;2022-07-23T04:34:06;13.20;87.40
52787;DHT22;38661;53.152;5.846;2022-07-23T04:36:32;13.20;87.70
52787;DHT22;38661;53.152;5.846;2022-07-23T04:38:57;13.10;87.80
52787;DHT22;38661;53.152;5.846;2022-07-23T04:41:23;13.10;87.60
52787;DHT22;38661;53.152;5.846;2022-07-23T04:43:49;13.10;88.10
52787;DHT22;38661;53.152;5.846;2022-07-23T04:46:14;13.20;88.00
52787;DHT22;38661;53.152;5.846;2022-07-23T04:48:40;13.20;87.70
52787;DHT22;38661;53.152;5.846;2022-07-23T04:51:07;13.20;87.70
52787;DHT22;38661;53.152;5.846;2022-07-23T04:53:33;13.20;87.50
52787;DHT22;38661;53.152;5.846;2022-07-23T04:55:58;13.20;87.60
52787;DHT22;38661;53.152;5.846;2022-07-23T04:58:24;13.20;87.50
52787;DHT22;38661;53.152;5.846;2022-07-23T05:00:50;13.30;87.50
52787;DHT22;38661;53.152;5.846;2022-07-23T05:03:15;13.30;87.50
52787;DHT22;38661;53.152;5.846;2022-07-23T05:05:41;13.40;87.80
52787;DHT22;38661;53.152;5.846;2022-07-23T05:08:07;13.50;87.50
52787;DHT22;38661;53.152;5.846;2022-07-23T05:10:32;13.50;87.50
52787;DHT22;38661;53.152;5.846;2022-07-23T05:12:58;13.70;87.50
52787;DHT22;38661;53.152;5.846;2022-07-23T05:15:24;13.70;87.50
52787;DHT22;38661;53.152;5.846;2022-07-23T05:17:49;13.90;87.70
52787;DHT22;38661;53.152;5.846;2022-07-23T05:20:15;13.90;87.50
52787;DHT22;38661;53.152;5.846;2022-07-23T05:22:41;14.00;87.10
52787;DHT22;38661;53.152;5.846;2022-07-23T05:25:07;14.10;86.70
52787;DHT22;38661;53.152;5.846;2022-07-23T05:27:33;14.20;86.40
52787;DHT22;38661;53.152;5.846;2022-07-23T05:29:59;14.30;86.10
52787;DHT22;38661;53.152;5.846;2022-07-23T05:32:25;14.40;85.60
52787;DHT22;38661;53.152;5.846;2022-07-23T05:34:50;14.50;85.50
52787;DHT22;38661;53.152;5.846;2022-07-23T05:37:16;14.50;85.40
52787;DHT22;38661;53.152;5.846;2022-07-23T05:39:42;14.60;85.10
52787;DHT22;38661;53.152;5.846;2022-07-23T05:42:08;14.70;84.80
52787;DHT22;38661;53.152;5.846;2022-07-23T05:44:33;14.70;84.80
52787;DHT22;38661;53.152;5.846;2022-07-23T05:46:59;14.80;84.50
52787;DHT22;38661;53.152;5.846;2022-07-23T05:49:25;14.90;84.60
52787;DHT22;38661;53.152;5.846;2022-07-23T05:51:51;14.90;84.70
52787;DHT22;38661;53.152;5.846;2022-07-23T05:54:16;15.00;84.80
52787;DHT22;38661;53.152;5.846;2022-07-23T05:56:42;15.00;84.80
52787;DHT22;38661;53.152;5.846;2022-07-23T05:59:08;15.10;84.80
52787;DHT22;38661;53.152;5.846;2022-07-23T06:01:34;15.20;84.80
52787;DHT22;38661;53.152;5.846;2022-07-23T06:04:00;15.30;84.60
52787;DHT22;38661;53.152;5.846;2022-07-23T06:06:26;15.40;83.90
52787;DHT22;38661;53.152;5.846;2022-07-23T06:08:51;15.50;83.70
52787;DHT22;38661;53.152;5.846;2022-07-23T06:11:17;15.60;83.60
52787;DHT22;38661;53.152;5.846;2022-07-23T06:13:43;15.70;83.00
52787;DHT22;38661;53.152;5.846;2022-07-23T06:16:08;15.70;82.80
52787;DHT22;38661;53.152;5.846;2022-07-23T06:18:34;15.90;82.70
52787;DHT22;38661;53.152;5.846;2022-07-23T06:21:00;15.90;82.10
52787;DHT22;38661;53.152;5.846;2022-07-23T06:23:25;16.00;81.80
52787;DHT22;38661;53.152;5.846;2022-07-23T06:25:51;16.00;81.50
52787;DHT22;38661;53.152;5.846;2022-07-23T06:28:17;16.10;80.80
52787;DHT22;38661;53.152;5.846;2022-07-23T06:30:43;16.20;80.20
52787;DHT22;38661;53.152;5.846;2022-07-23T06:33:09;16.30;79.70
52787;DHT22;38661;53.152;5.846;2022-07-23T06:35:35;16.40;79.10
52787;DHT22;38661;53.152;5.846;2022-07-23T06:38:00;16.50;78.80
52787;DHT22;38661;53.152;5.846;2022-07-23T06:40:26;16.50;78.70
52787;DHT22;38661;53.152;5.846;2022-07-23T06:42:52;16.60;78.50
52787;DHT22;38661;53.152;5.846;2022-07-23T06:45:17;16.70;77.50
52787;DHT22;38661;53.152;5.846;2022-07-23T06:47:43;16.80;76.40
52787;DHT22;38661;53.152;5.846;2022-07-23T06:50:10;16.90;76.30
52787;DHT22;38661;53.152;5.846;2022-07-23T06:52:36;17.00;76.20
52787;DHT22;38661;53.152;5.846;2022-07-23T06:55:01;17.00;75.10
52787;DHT22;38661;53.152;5.846;2022-07-23T06:57:27;17.10;73.70
52787;DHT22;38661;53.152;5.846;2022-07-23T06:59:53;17.20;74.00
52787;DHT22;38661;53.152;5.846;2022-07-23T07:02:19;17.30;73.00
52787;DHT22;38661;53.152;5.846;2022-07-23T07:04:44;17.40;72.30
52787;DHT22;38661;53.152;5.846;2022-07-23T07:07:11;17.40;71.80
52787;DHT22;38661;53.152;5.846;2022-07-23T07:09:37;17.50;72.30
52787;DHT22;38661;53.152;5.846;2022-07-23T07:12:03;17.50;72.10
52787;DHT22;38661;53.152;5.846;2022-07-23T07:14:29;17.60;71.70
52787;DHT22;38661;53.152;5.846;2022-07-23T07:16:55;17.60;71.40
52787;DHT22;38661;53.152;5.846;2022-07-23T07:19:20;17.70;71.20
52787;DHT22;38661;53.152;5.846;2022-07-23T07:21:46;17.70;70.50
52787;DHT22;38661;53.152;5.846;2022-07-23T07:24:12;17.70;70.10
52787;DHT22;38661;53.152;5.846;2022-07-23T07:26:37;17.70;69.30
52787;DHT22;38661;53.152;5.846;2022-07-23T07:29:05;17.80;68.30
52787;DHT22;38661;53.152;5.846;2022-07-23T07:31:31;17.80;68.00
52787;DHT22;38661;53.152;5.846;2022-07-23T07:33:57;17.90;67.00
52787;DHT22;38661;53.152;5.846;2022-07-23T07:36:23;17.90;67.20
52787;DHT22;38661;53.152;5.846;2022-07-23T07:38:48;17.90;66.60
52787;DHT22;38661;53.152;5.846;2022-07-23T07:41:14;17.90;66.00
52787;DHT22;38661;53.152;5.846;2022-07-23T07:43:41;17.90;66.10
52787;DHT22;38661;53.152;5.846;2022-07-23T07:46:07;18.00;66.40
52787;DHT22;38661;53.152;5.846;2022-07-23T07:48:39;18.00;66.10
52787;DHT22;38661;53.152;5.846;2022-07-23T07:51:05;18.00;66.00
52787;DHT22;38661;53.152;5.846;2022-07-23T07:53:31;18.00;65.70
52787;DHT22;38661;53.152;5.846;2022-07-23T07:55:56;18.00;66.40
52787;DHT22;38661;53.152;5.846;2022-07-23T07:58:22;18.00;66.70
52787;DHT22;38661;53.152;5.846;2022-07-23T08:00:48;18.00;67.00
52787;DHT22;38661;53.152;5.846;2022-07-23T08:03:13;18.00;67.20
52787;DHT22;38661;53.152;5.846;2022-07-23T08:05:39;17.90;67.70
52787;DHT22;38661;53.152;5.846;2022-07-23T08:08:05;18.00;67.80
52787;DHT22;38661;53.152;5.846;2022-07-23T08:10:31;17.90;68.20
52787;DHT22;38661;53.152;5.846;2022-07-23T08:12:58;17.90;68.00
52787;DHT22;38661;53.152;5.846;2022-07-23T08:15:27;18.00;68.10
52787;DHT22;38661;53.152;5.846;2022-07-23T08:17:53;17.90;68.50
52787;DHT22;38661;53.152;5.846;2022-07-23T08:20:21;17.90;69.00
52787;DHT22;38661;53.152;5.846;2022-07-23T08:22:48;18.00;69.40
52787;DHT22;38661;53.152;5.846;2022-07-23T08:25:16;18.00;69.40
52787;DHT22;38661;53.152;5.846;2022-07-23T08:27:42;18.00;69.40
52787;DHT22;38661;53.152;5.846;2022-07-23T08:30:09;18.00;69.50
52787;DHT22;38661;53.152;5.846;2022-07-23T08:32:51;18.00;70.00
52787;DHT22;38661;53.152;5.846;2022-07-23T08:35:17;18.00;70.30
52787;DHT22;38661;53.152;5.846;2022-07-23T08:37:44;18.00;70.60
52787;DHT22;38661;53.152;5.846;2022-07-23T08:40:11;17.90;70.50
52787;DHT22;38661;53.152;5.846;2022-07-23T08:42:37;17.90;70.90
52787;DHT22;38661;53.152;5.846;2022-07-23T08:45:03;17.90;71.20
52787;DHT22;38661;53.152;5.846;2022-07-23T08:47:29;17.90;70.90
52787;DHT22;38661;53.152;5.846;2022-07-23T08:49:57;17.90;71.00
52787;DHT22;38661;53.152;5.846;2022-07-23T08:52:24;17.80;71.10
52787;DHT22;38661;53.152;5.846;2022-07-23T08:54:50;17.90;71.30
52787;DHT22;38661;53.152;5.846;2022-07-23T08:57:17;17.80;71.40
52787;DHT22;38661;53.152;5.846;2022-07-23T08:59:42;17.80;71.60
52787;DHT22;38661;53.152;5.846;2022-07-23T09:02:08;17.90;71.90
52787;DHT22;38661;53.152;5.846;2022-07-23T09:04:34;17.90;71.80
52787;DHT22;38661;53.152;5.846;2022-07-23T09:07:01;17.90;71.70
52787;DHT22;38661;53.152;5.846;2022-07-23T09:09:27;18.00;72.00
52787;DHT22;38661;53.152;5.846;2022-07-23T09:12:07;18.00;71.80
52787;DHT22;38661;53.152;5.846;2022-07-23T09:14:44;18.10;71.60
52787;DHT22;38661;53.152;5.846;2022-07-23T09:17:14;18.10;71.50
52787;DHT22;38661;53.152;5.846;2022-07-23T09:19:41;18.30;71.60
52787;DHT22;38661;53.152;5.846;2022-07-23T09:22:34;18.40;71.40
52787;DHT22;38661;53.152;5.846;2022-07-23T09:25:11;18.40;71.30
52787;DHT22;38661;53.152;5.846;2022-07-23T09:27:57;18.50;71.00
52787;DHT22;38661;53.152;5.846;2022-07-23T09:30:32;18.60;70.90
52787;DHT22;38661;53.152;5.846;2022-07-23T09:33:13;18.60;71.10
52787;DHT22;38661;53.152;5.846;2022-07-23T09:35:52;18.70;71.10
52787;DHT22;38661;53.152;5.846;2022-07-23T09:38:20;18.70;71.20
52787;DHT22;38661;53.152;5.846;2022-07-23T09:40:46;18.80;70.70
52787;DHT22;38661;53.152;5.846;2022-07-23T09:43:27;18.80;70.30
52787;DHT22;38661;53.152;5.846;2022-07-23T09:45:53;18.80;70.60
52787;DHT22;38661;53.152;5.846;2022-07-23T09:48:19;18.70;70.60
52787;DHT22;38661;53.152;5.846;2022-07-23T09:50:46;18.80;70.30
52787;DHT22;38661;53.152;5.846;2022-07-23T09:53:25;19.00;70.60
52787;DHT22;38661;53.152;5.846;2022-07-23T09:55:55;19.10;69.90
52787;DHT22;38661;53.152;5.846;2022-07-23T09:58:26;19.20;69.80
52787;DHT22;38661;53.152;5.846;2022-07-23T10:00:53;19.20;69.70
52787;DHT22;38661;53.152;5.846;2022-07-23T10:03:19;19.20;68.50
52787;DHT22;38661;53.152;5.846;2022-07-23T10:05:47;19.20;69.00
52787;DHT22;38661;53.152;5.846;2022-07-23T10:08:13;19.30;69.50
52787;DHT22;38661;53.152;5.846;2022-07-23T10:10:42;19.40;69.40
52787;DHT22;38661;53.152;5.846;2022-07-23T10:13:08;19.50;69.40
52787;DHT22;38661;53.152;5.846;2022-07-23T10:15:53;19.50;68.90
52787;DHT22;38661;53.152;5.846;2022-07-23T10:18:19;19.50;68.90
52787;DHT22;38661;53.152;5.846;2022-07-23T10:20:47;19.60;68.70
52787;DHT22;38661;53.152;5.846;2022-07-23T10:23:24;19.70;68.60
52787;DHT22;38661;53.152;5.846;2022-07-23T10:26:09;19.80;67.90
52787;DHT22;38661;53.152;5.846;2022-07-23T10:28:42;20.00;67.50
52787;DHT22;38661;53.152;5.846;2022-07-23T10:34:35;20.50;65.70
52787;DHT22;38661;53.152;5.846;2022-07-23T10:39:41;20.40;65.20
52787;DHT22;38661;53.152;5.846;2022-07-23T10:42:10;20.30;65.40
52787;DHT22;38661;53.152;5.846;2022-07-23T10:44:47;20.40;65.40
52787;DHT22;38661;53.152;5.846;2022-07-23T10:47:28;20.50;65.60
52787;DHT22;38661;53.152;5.846;2022-07-23T10:53:14;20.70;63.80
52787;DHT22;38661;53.152;5.846;2022-07-23T10:55:46;20.80;63.30
52787;DHT22;38661;53.152;5.846;2022-07-23T10:58:45;20.90;63.50
52787;DHT22;38661;53.152;5.846;2022-07-23T11:01:32;20.90;63.50
52787;DHT22;38661;53.152;5.846;2022-07-23T11:03:58;20.90;63.10
52787;DHT22;38661;53.152;5.846;2022-07-23T11:09:41;21.00;63.10
52787;DHT22;38661;53.152;5.846;2022-07-23T11:14:58;21.10;62.50
52787;DHT22;38661;53.152;5.846;2022-07-23T11:17:24;21.00;62.60
52787;DHT22;38661;53.152;5.846;2022-07-23T11:22:39;21.30;63.30
52787;DHT22;38661;53.152;5.846;2022-07-23T11:25:05;21.60;62.30
52787;DHT22;38661;53.152;5.846;2022-07-23T11:27:43;21.80;61.00
52787;DHT22;38661;53.152;5.846;2022-07-23T11:30:10;21.90;60.60
52787;DHT22;38661;53.152;5.846;2022-07-23T11:32:40;22.10;60.60
52787;DHT22;38661;53.152;5.846;2022-07-23T11:35:20;22.40;60.00
52787;DHT22;38661;53.152;5.846;2022-07-23T11:37:47;22.40;59.60
52787;DHT22;38661;53.152;5.846;2022-07-23T11:40:15;22.50;58.50
52787;DHT22;38661;53.152;5.846;2022-07-23T11:43:08;22.50;58.10
52787;DHT22;38661;53.152;5.846;2022-07-23T11:45:41;22.40;59.00
52787;DHT22;38661;53.152;5.846;2022-07-23T11:48:09;22.50;59.20
52787;DHT22;38661;53.152;5.846;2022-07-23T11:50:35;22.60;59.60
52787;DHT22;38661;53.152;5.846;2022-07-23T11:53:03;22.60;59.70
52787;DHT22;38661;53.152;5.846;2022-07-23T11:55:28;22.50;59.50
52787;DHT22;38661;53.152;5.846;2022-07-23T11:57:55;22.50;59.20
52787;DHT22;38661;53.152;5.846;2022-07-23T12:00:23;22.60;59.30
52787;DHT22;38661;53.152;5.846;2022-07-23T12:02:52;22.80;58.00
52787;DHT22;38661;53.152;5.846;2022-07-23T12:05:26;22.90;58.10
52787;DHT22;38661;53.152;5.846;2022-07-23T12:07:55;23.00;58.20
52787;DHT22;38661;53.152;5.846;2022-07-23T12:10:53;23.10;57.70
52787;DHT22;38661;53.152;5.846;2022-07-23T12:13:20;22.90;57.70
52787;DHT22;38661;53.152;5.846;2022-07-23T12:15:52;22.60;58.40
52787;DHT22;38661;53.152;5.846;2022-07-23T12:18:24;22.70;58.50
52787;DHT22;38661;53.152;5.846;2022-07-23T12:20:53;22.60;58.40
52787;DHT22;38661;53.152;5.846;2022-07-23T12:23:21;22.70;58.60
52787;DHT22;38661;53.152;5.846;2022-07-23T12:25:48;22.80;58.00
52787;DHT22;38661;53.152;5.846;2022-07-23T12:28:18;22.80;58.30
52787;DHT22;38661;53.152;5.846;2022-07-23T12:30:46;22.80;58.40
52787;DHT22;38661;53.152;5.846;2022-07-23T12:33:36;22.60;58.20
52787;DHT22;38661;53.152;5.846;2022-07-23T12:36:05;22.50;58.90
52787;DHT22;38661;53.152;5.846;2022-07-23T12:38:47;22.40;58.90
52787;DHT22;38661;53.152;5.846;2022-07-23T12:41:14;22.40;59.40
52787;DHT22;38661;53.152;5.846;2022-07-23T12:43:42;22.40;59.50
52787;DHT22;38661;53.152;5.846;2022-07-23T12:46:19;22.40;59.90
52787;DHT22;38661;53.152;5.846;2022-07-23T12:51:24;22.40;59.50
52787;DHT22;38661;53.152;5.846;2022-07-23T12:56:20;22.80;58.90
52787;DHT22;38661;53.152;5.846;2022-07-23T12:58:54;23.00;58.40
52787;DHT22;38661;53.152;5.846;2022-07-23T13:03:59;23.10;57.40
52787;DHT22;38661;53.152;5.846;2022-07-23T13:06:27;23.00;57.30
52787;DHT22;38661;53.152;5.846;2022-07-23T13:08:53;23.00;56.60
52787;DHT22;38661;53.152;5.846;2022-07-23T13:11:18;23.00;57.80
52787;DHT22;38661;53.152;5.846;2022-07-23T13:13:44;22.90;57.00
52787;DHT22;38661;53.152;5.846;2022-07-23T13:16:10;22.90;57.70
52787;DHT22;38661;53.152;5.846;2022-07-23T13:18:35;23.10;57.40
52787;DHT22;38661;53.152;5.846;2022-07-23T13:21:02;23.20;56.90
52787;DHT22;38661;53.152;5.846;2022-07-23T13:23:28;23.40;56.00
52787;DHT22;38661;53.152;5.846;2022-07-23T13:25:54;23.40;56.50
52787;DHT22;38661;53.152;5.846;2022-07-23T13:28:21;23.20;56.90
52787;DHT22;38661;53.152;5.846;2022-07-23T13:30:48;23.40;57.10
52787;DHT22;38661;53.152;5.846;2022-07-23T13:33:18;23.60;56.20
52787;DHT22;38661;53.152;5.846;2022-07-23T13:35:44;23.90;55.90
52787;DHT22;38661;53.152;5.846;2022-07-23T13:38:10;23.90;56.20
52787;DHT22;38661;53.152;5.846;2022-07-23T13:40:42;23.80;56.20
52787;DHT22;38661;53.152;5.846;2022-07-23T13:43:09;23.90;55.90
52787;DHT22;38661;53.152;5.846;2022-07-23T13:45:36;24.10;56.20
52787;DHT22;38661;53.152;5.846;2022-07-23T13:48:02;24.30;55.40
52787;DHT22;38661;53.152;5.846;2022-07-23T13:50:28;24.30;54.50
52787;DHT22;38661;53.152;5.846;2022-07-23T13:52:54;24.20;54.80
52787;DHT22;38661;53.152;5.846;2022-07-23T13:55:20;24.20;55.00
52787;DHT22;38661;53.152;5.846;2022-07-23T13:57:45;24.20;54.60
52787;DHT22;38661;53.152;5.846;2022-07-23T14:00:12;24.10;54.70
52787;DHT22;38661;53.152;5.846;2022-07-23T14:02:39;24.30;55.60
52787;DHT22;38661;53.152;5.846;2022-07-23T14:05:06;24.50;55.40
52787;DHT22;38661;53.152;5.846;2022-07-23T14:07:33;24.90;55.10
52787;DHT22;38661;53.152;5.846;2022-07-23T14:10:03;25.00;53.40
52787;DHT22;38661;53.152;5.846;2022-07-23T14:12:29;24.90;52.90
52787;DHT22;38661;53.152;5.846;2022-07-23T14:14:55;25.00;52.80
52787;DHT22;38661;53.152;5.846;2022-07-23T14:17:21;25.10;52.80
52787;DHT22;38661;53.152;5.846;2022-07-23T14:19:47;25.00;52.90
52787;DHT22;38661;53.152;5.846;2022-07-23T14:22:12;25.10;52.80
52787;DHT22;38661;53.152;5.846;2022-07-23T14:24:38;25.20;52.80
52787;DHT22;38661;53.152;5.846;2022-07-23T14:27:04;25.20;52.50
52787;DHT22;38661;53.152;5.846;2022-07-23T14:29:30;25.20;52.50
52787;DHT22;38661;53.152;5.846;2022-07-23T14:31:57;25.30;52.70
52787;DHT22;38661;53.152;5.846;2022-07-23T14:34:25;25.40;52.30
52787;DHT22;38661;53.152;5.846;2022-07-23T14:36:52;25.60;52.20
52787;DHT22;38661;53.152;5.846;2022-07-23T14:39:18;25.60;52.10
52787;DHT22;38661;53.152;5.846;2022-07-23T14:41:44;25.70;51.60
52787;DHT22;38661;53.152;5.846;2022-07-23T14:44:09;25.70;50.40
52787;DHT22;38661;53.152;5.846;2022-07-23T14:46:36;25.60;51.20
52787;DHT22;38661;53.152;5.846;2022-07-23T14:49:02;25.60;51.10
52787;DHT22;38661;53.152;5.846;2022-07-23T14:51:28;25.50;51.70
52787;DHT22;38661;53.152;5.846;2022-07-23T14:53:54;25.60;51.90
52787;DHT22;38661;53.152;5.846;2022-07-23T14:56:19;25.90;51.80
52787;DHT22;38661;53.152;5.846;2022-07-23T14:58:45;25.90;50.10
52787;DHT22;38661;53.152;5.846;2022-07-23T15:01:14;25.90;50.60
52787;DHT22;38661;53.152;5.846;2022-07-23T15:03:40;25.90;50.10
52787;DHT22;38661;53.152;5.846;2022-07-23T15:06:06;26.00;51.40
52787;DHT22;38661;53.152;5.846;2022-07-23T15:08:31;26.20;51.40
52787;DHT22;38661;53.152;5.846;2022-07-23T15:10:57;26.30;50.60
52787;DHT22;38661;53.152;5.846;2022-07-23T15:13:23;26.40;50.90
52787;DHT22;38661;53.152;5.846;2022-07-23T15:15:49;26.60;50.70
52787;DHT22;38661;53.152;5.846;2022-07-23T15:18:15;26.50;48.10
52787;DHT22;38661;53.152;5.846;2022-07-23T15:20:41;26.30;48.90
52787;DHT22;38661;53.152;5.846;2022-07-23T15:23:07;26.30;49.50
52787;DHT22;38661;53.152;5.846;2022-07-23T15:25:34;26.40;48.90
52787;DHT22;38661;53.152;5.846;2022-07-23T15:27:59;26.40;49.10
52787;DHT22;38661;53.152;5.846;2022-07-23T15:30:26;26.40;48.00
52787;DHT22;38661;53.152;5.846;2022-07-23T15:32:52;26.20;48.00
52787;DHT22;38661;53.152;5.846;2022-07-23T15:35:19;26.10;48.80
52787;DHT22;38661;53.152;5.846;2022-07-23T15:37:45;26.10;49.20
52787;DHT22;38661;53.152;5.846;2022-07-23T15:40:11;26.20;49.50
52787;DHT22;38661;53.152;5.846;2022-07-23T15:42:37;26.30;49.60
52787;DHT22;38661;53.152;5.846;2022-07-23T15:45:03;26.60;49.40
52787;DHT22;38661;53.152;5.846;2022-07-23T15:47:30;26.70;46.60
52787;DHT22;38661;53.152;5.846;2022-07-23T15:49:56;26.50;47.30
52787;DHT22;38661;53.152;5.846;2022-07-23T15:52:22;26.60;47.70
52787;DHT22;38661;53.152;5.846;2022-07-23T15:54:48;26.70;47.20
52787;DHT22;38661;53.152;5.846;2022-07-23T15:57:14;26.60;46.90